Time;durP1;ratioP1;P1;durP2;ratioP2;P2;SDS_P1;SDS_P2;PMS_P1;PMS_P2;Temp;Humidity;BMP_temperature;BMP_pressure;BME280_temperature;BME280_humidity;BME280_pressure;Samples;Min_cycle;Max_cycle;Signal;HPM_P1;HPM_P2
2021/05/18 00:01:14;;;;;;;22.27;14.52;;;;;;;-150.07;57.44;62240.44;5011042;28;20041;-84
2021/05/18 00:03:41;;;;;;;25.20;14.38;;;;;;;-150.07;56.57;62079.28;5011227;28;20483;-82
2021/05/18 00:06:08;;;;;;;18.85;14.40;;;;;;;-150.07;57.04;62211.13;5011334;28;20030;-82
2021/05/18 00:11:42;;;;;;;23.73;14.77;;;;;;;-150.07;56.73;61989.28;5011185;28;20025;-87
2021/05/18 00:14:07;;;;;;;18.95;12.65;;;;;;;-150.07;56.16;62154.63;5011483;28;20044;-86
2021/05/18 00:16:34;;;;;;;19.80;14.23;;;;;;;-150.07;56.05;62173.47;4994708;28;20126;-85
2021/05/18 00:19:01;;;;;;;20.30;14.25;;;;;;;-150.07;56.00;62234.16;5016037;28;20092;-87
2021/05/18 00:21:28;;;;;;;17.30;13.10;;;;;;;-150.07;55.72;62232.06;5013579;28;20038;-84
2021/05/18 00:23:55;;;;;;;26.23;14.65;;;;;;;-150.07;55.89;62897.69;5002160;28;20026;-90
2021/05/18 00:26:22;;;;;;;18.90;13.25;;;;;;;-150.07;56.26;61945.34;5002090;28;20022;-87
2021/05/18 00:28:50;;;;;;;22.50;13.73;;;;;;;-150.07;55.76;62152.53;5001485;28;20038;-93
2021/05/18 00:31:17;;;;;;;20.13;12.25;;;;;;;-150.07;55.15;62317.88;5022290;28;20026;-82
2021/05/18 00:33:44;;;;;;;17.13;11.68;;;;;;;-150.07;55.93;62060.44;5027801;28;20018;-90
2021/05/18 00:36:14;;;;;;;20.67;10.88;;;;;;;-150.07;55.64;62190.22;5004817;28;20029;-88
2021/05/18 00:38:42;;;;;;;17.63;12.15;;;;;;;-150.07;55.88;62129.50;5022906;28;20032;-89
2021/05/18 00:41:10;;;;;;;21.52;11.50;;;;;;;-150.07;55.38;62154.63;5025454;28;20472;-92
2021/05/18 00:43:39;;;;;;;14.55;10.27;;;;;;;-150.07;54.68;62345.09;5006386;28;20494;-91
2021/05/18 00:46:06;;;;;;;13.80;9.80;;;;;;;-150.07;54.14;62093.94;4996478;28;20023;-95
2021/05/18 00:48:34;;;;;;;14.05;8.75;;;;;;;-150.07;54.68;62834.88;5034807;28;20117;-91
2021/05/18 00:51:07;;;;;;;16.33;8.85;;;;;;;-150.07;54.73;62887.22;5020072;28;20106;-93
2021/05/18 00:53:36;;;;;;;18.02;9.13;;;;;;;-150.07;54.47;62705.09;5021418;28;20048;-90
2021/05/18 00:56:07;;;;;;;12.07;8.55;;;;;;;-150.07;53.21;62219.50;5020106;28;20026;-89
2021/05/18 00:58:39;;;;;;;10.75;7.45;;;;;;;-150.07;53.35;62271.84;5005466;28;20124;-91
2021/05/18 01:01:15;;;;;;;12.45;7.88;;;;;;;-150.07;53.52;61983.00;5017097;28;20038;-86
2021/05/18 01:03:43;;;;;;;8.52;6.20;;;;;;;-150.07;52.62;62347.19;5002982;28;20049;-94
2021/05/18 01:08:53;;;;;;;10.93;6.40;;;;;;;-150.07;52.87;62060.44;5016951;28;20025;-92
2021/05/18 01:11:23;;;;;;;8.95;6.43;;;;;;;-150.07;52.29;62091.84;5018072;28;20034;-91
2021/05/18 01:13:55;;;;;;;;;;;;;;;-150.07;51.51;62499.97;5002712;28;20034;-89
2021/05/18 01:16:23;;;;;;;10.57;6.65;;;;;;;-150.07;51.63;62537.66;5007685;28;20314;-90
2021/05/18 01:18:51;;;;;;;10.15;6.32;;;;;;;-150.07;51.51;62598.34;5000333;28;20501;-90
2021/05/18 01:21:18;;;;;;;10.20;7.45;;;;;;;-150.07;51.27;62763.72;5000606;28;20080;-87
2021/05/18 01:23:45;;;;;;;14.73;8.32;;;;;;;-150.07;51.65;62493.69;4998205;28;20080;-85
2021/05/18 01:26:13;;;;;;;13.75;8.00;;;;;;;-150.07;51.69;63534.09;5002729;28;20406;-86
2021/05/18 01:28:41;;;;;;;10.85;6.90;;;;;;;-150.07;52.17;62240.44;5032276;28;20034;-85
2021/05/18 01:31:11;;;;;;;9.60;6.55;;;;;;;-150.07;51.83;63335.19;5016040;28;20026;-86
2021/05/18 01:33:38;;;;;;;12.60;7.13;;;;;;;-150.07;52.43;62539.75;5022392;28;20041;-85
2021/05/18 01:36:09;;;;;;;11.23;6.60;;;;;;;-150.07;52.38;62150.44;5009811;28;20026;-86
2021/05/18 01:38:54;;;;;;;7.88;5.95;;;;;;;-150.07;51.92;62514.63;5029121;28;20119;-86
2021/05/18 01:44:10;;;;;;;11.65;7.72;;;;;;;-150.07;52.46;62493.69;5020788;28;20117;-88
2021/05/18 01:46:37;;;;;;;10.20;7.65;;;;;;;-150.07;53.19;62227.88;5009002;28;20049;-91
2021/05/18 01:49:08;;;;;;;11.48;6.28;;;;;;;-150.07;52.50;62219.50;4998319;28;20044;-90
2021/05/18 01:51:37;;;;;;;8.70;6.03;;;;;;;-150.07;52.17;62010.22;4997876;28;20033;-88
2021/05/18 01:54:14;;;;;;;10.52;6.13;;;;;;;-150.07;51.42;62502.06;5013151;28;20495;-92
2021/05/18 01:56:52;;;;;;;9.73;6.82;;;;;;;-150.07;52.66;62529.28;5000140;28;20061;-90
2021/05/18 01:59:22;;;;;;;13.38;6.10;;;;;;;-150.07;52.41;62020.69;4999990;28;20038;-90
2021/05/18 02:01:54;;;;;;;12.57;6.95;;;;;;;-150.07;52.68;63439.88;5004054;28;20026;-90
2021/05/18 02:04:35;;;;;;;10.10;7.20;;;;;;;-150.07;52.16;62449.75;5037221;28;20053;-90
2021/05/18 02:07:15;;;;;;;11.80;7.00;;;;;;;-150.07;52.53;62183.94;5007453;28;20038;-92
2021/05/18 02:09:42;;;;;;;9.93;6.60;;;;;;;-150.07;52.60;62853.72;5000421;28;20553;-92
2021/05/18 02:12:10;;;;;;;9.55;7.20;;;;;;;-150.07;52.13;62445.56;5001434;28;20034;-89
2021/05/18 02:14:38;;;;;;;11.30;7.70;;;;;;;-150.07;52.00;62332.53;5000516;28;20449;-87
2021/05/18 02:17:17;;;;;;;11.50;6.47;;;;;;;-150.07;51.82;62389.03;5000098;28;20026;-89
2021/05/18 02:25:25;;;;;;;9.90;6.65;;;;;;;-150.07;52.18;63454.53;5016580;28;20111;-89
2021/05/18 02:27:54;;;;;;;10.95;7.55;;;;;;;-150.07;53.36;62401.59;5001061;28;20025;-92
2021/05/18 02:30:22;;;;;;;7.90;6.03;;;;;;;-150.07;53.28;63125.84;5020556;28;20429;-89
2021/05/18 02:32:50;;;;;;;10.55;5.75;;;;;;;-150.07;52.79;62322.06;4997261;28;20037;-85
2021/05/18 02:35:19;;;;;;;14.50;6.72;;;;;;;-150.07;52.82;62196.50;5022253;28;20040;-88
2021/05/18 02:37:47;;;;;;;11.98;7.05;;;;;;;-150.07;52.31;62510.44;5020328;28;20032;-90
2021/05/18 02:40:20;;;;;;;13.40;7.00;;;;;;;-150.07;52.95;62550.22;5032364;28;20058;-91
2021/05/18 02:42:49;;;;;;;15.68;6.82;;;;;;;-150.07;52.07;62491.59;5008230;28;20030;-91
2021/05/18 02:45:29;;;;;;;14.95;7.43;;;;;;;-150.07;52.43;62541.84;5012083;28;20040;-89
2021/05/18 02:50:42;;;;;;;8.02;6.63;;;;;;;-150.07;52.20;62257.19;5024914;28;19920;-94
2021/05/18 02:53:10;;;;;;;12.52;5.80;;;;;;;-150.07;51.67;62583.69;4999141;28;20030;-85
2021/05/18 02:58:07;;;;;;;15.52;5.90;;;;;;;-150.07;51.61;63651.31;5017003;28;20042;-88
2021/05/18 03:00:35;;;;;;;8.93;5.97;;;;;;;-150.07;51.30;63488.03;5009423;28;20394;-86
2021/05/18 03:03:02;;;;;;;17.02;6.90;;;;;;;-150.07;50.93;62499.97;5023464;28;20045;-88
2021/05/18 03:05:29;;;;;;;10.50;6.22;;;;;;;-150.07;51.07;63293.31;4999305;28;20022;-88
2021/05/18 03:07:57;;;;;;;10.60;6.47;;;;;;;-150.07;51.47;62671.59;5006109;28;20586;-89
2021/05/18 03:10:24;;;;;;;7.32;5.90;;;;;;;-150.07;51.31;62382.75;5011413;28;20074;-90
2021/05/18 03:12:52;;;;;;;9.98;5.60;;;;;;;-150.07;51.18;62489.50;5002530;28;20443;-89
2021/05/18 03:15:19;;;;;;;8.95;6.10;;;;;;;-150.07;51.32;62420.44;4997079;28;20030;-89
2021/05/18 03:17:46;;;;;;;11.32;6.22;;;;;;;-150.07;52.08;62299.03;5005790;28;20014;-88
2021/05/18 03:20:16;;;;;;;11.73;6.35;;;;;;;-150.07;51.77;63299.59;5036296;28;20017;-86
2021/05/18 03:22:44;;;;;;;13.32;6.80;;;;;;;-150.07;50.78;62600.44;5010867;28;20030;-88
2021/05/18 03:25:11;;;;;;;9.60;6.45;;;;;;;-150.07;50.58;62767.91;4998295;28;20022;-88
2021/05/18 03:27:39;;;;;;;5.90;5.07;;;;;;;-150.07;51.51;62529.28;5016151;28;20030;-89
2021/05/18 03:35:46;;;;;;;11.90;6.75;;;;;;;-150.07;50.45;62546.03;4995560;28;20494;-86
2021/05/18 03:38:21;;;;;;;10.70;7.68;;;;;;;-150.07;52.00;62391.13;4994005;28;20475;-86
2021/05/18 03:40:57;;;;;;;7.20;5.95;;;;;;;-150.07;52.08;63649.25;5007186;28;20025;-85
2021/05/18 03:48:39;;;;;;;11.60;5.88;;;;;;;-150.07;51.52;62636.03;5007145;28;20037;-84
2021/05/18 03:48:56;;;;;;;16.83;6.18;;;;;;;-150.07;51.23;63555.03;5007985;28;20042;-86
2021/05/18 03:54:22;;;;;;;7.80;6.18;;;;;;;-150.07;51.14;62152.53;5013953;28;20079;-84
2021/05/18 04:19:06;;;;;;;8.52;5.93;;;;;;;-150.07;50.94;62589.97;5018230;28;20137;-87
2021/05/18 04:21:47;;;;;;;9.55;5.43;;;;;;;-150.07;50.30;63563.41;5025067;28;20033;-88
2021/05/18 04:52:07;;;;;;;13.07;5.50;;;;;;;-150.07;51.33;62441.38;5012098;28;20068;-86
2021/05/18 04:55:22;;;;;;;8.40;5.95;;;;;;;-150.07;51.95;62175.56;5010382;28;20065;-87
2021/05/18 05:00:24;;;;;;;8.73;6.47;;;;;;;-150.07;52.20;63138.41;5014616;28;20045;-86
2021/05/18 05:08:20;;;;;;;14.95;8.18;;;;;;;-150.07;53.31;62322.06;5013125;28;20045;-87
2021/05/18 05:16:02;;;;;;;13.50;7.85;;;;;;;-150.07;52.15;62357.66;4997260;28;20045;-85
2021/05/18 05:18:29;;;;;;;10.13;7.20;;;;;;;-150.07;52.20;63596.91;5011373;28;20522;-84
2021/05/18 05:20:56;;;;;;;12.65;6.55;;;;;;;-150.07;51.25;62499.97;5015327;28;20598;-86
2021/05/18 05:23:23;;;;;;;10.98;7.20;;;;;;;-150.07;50.80;62537.66;4998274;28;20091;-83
2021/05/18 05:25:50;;;;;;;7.43;6.00;;;;;;;-150.07;50.87;62483.22;4996630;28;20030;-86
2021/05/18 05:28:16;;;;;;;7.53;4.75;;;;;;;-150.07;50.28;63665.97;5014557;28;20113;-87
2021/05/18 05:30:43;;;;;;;7.70;5.25;;;;;;;-150.07;50.70;62481.13;4997252;28;20030;-83
2021/05/18 05:33:10;;;;;;;5.80;4.15;;;;;;;-150.07;50.21;63567.59;4995598;28;20041;-87
2021/05/18 05:35:37;;;;;;;7.97;4.30;;;;;;;-150.07;49.77;62347.19;4996086;28;20136;-80
2021/05/18 05:38:06;;;;;;;8.27;4.78;;;;;;;-150.07;49.50;62345.09;4995293;28;20085;-85
2021/05/18 05:40:34;;;;;;;9.55;5.55;;;;;;;-150.07;49.44;62403.69;5009084;28;20038;-84
2021/05/18 05:43:01;;;;;;;4.75;4.32;;;;;;;-150.07;49.47;62165.09;5002886;28;20030;-83
2021/05/18 05:45:28;;;;;;;7.07;5.03;;;;;;;-150.07;48.84;62483.22;4996703;28;20038;-84
2021/05/18 05:47:55;;;;;;;5.57;3.95;;;;;;;-150.07;48.46;62269.75;5020934;28;20018;-85
2021/05/18 05:50:22;;;;;;;6.55;4.45;;;;;;;-150.07;48.73;63609.47;5011689;28;20034;-83
2021/05/18 05:52:48;;;;;;;4.90;3.95;;;;;;;-150.07;48.49;62206.94;5015421;28;20021;-84
2021/05/18 05:55:15;;;;;;;10.60;4.95;;;;;;;-150.07;48.86;62462.28;4994799;28;20030;-83
2021/05/18 05:57:42;;;;;;;7.22;4.03;;;;;;;-150.07;47.57;63701.56;4992676;28;20782;-84
2021/05/18 06:00:11;;;;;;;4.18;3.47;;;;;;;-150.07;47.63;62445.56;5012827;28;20030;-84
2021/05/18 06:02:39;;;;;;;7.13;3.78;;;;;;;-150.07;47.97;62299.03;5012718;28;20077;-83
2021/05/18 06:05:06;;;;;;;6.60;4.25;;;;;;;-150.07;47.94;62510.44;5012799;28;20487;-83
2021/05/18 06:07:33;;;;;;;5.57;3.53;;;;;;;-150.07;48.71;62759.53;4994600;28;20045;-83
2021/05/18 06:10:07;;;;;;;8.45;4.60;;;;;;;-150.07;48.70;62081.38;4994833;28;20388;-84
2021/05/18 06:12:50;;;;;;;5.13;3.95;;;;;;;-150.07;48.67;62370.19;5012493;28;20034;-84
2021/05/18 06:18:10;;;;;;;7.40;4.70;;;;;;;-150.07;48.12;62424.63;5011810;28;20557;-84
2021/05/18 06:42:43;;;;;;;5.72;3.67;;;;;;;-150.07;47.71;62801.38;5007975;28;20064;-83
2021/05/18 06:47:55;;;;;;;5.60;3.47;;;;;;;-150.07;47.39;62248.81;5012133;28;20558;-84
2021/05/18 06:50:29;;;;;;;6.18;3.97;;;;;;;-150.07;47.25;62179.75;5011943;28;20022;-83
2021/05/18 06:52:56;;;;;;;7.15;3.53;;;;;;;-150.07;48.18;62382.75;5012424;28;20034;-84
2021/05/18 06:55:27;;;;;;;7.38;4.72;;;;;;;-150.07;49.22;62261.38;4994079;28;20049;-84
2021/05/18 06:58:01;;;;;;;6.78;4.00;;;;;;;-150.07;49.55;62709.28;4995233;28;20069;-83
2021/05/18 07:00:27;;;;;;;9.98;5.40;;;;;;;-150.07;49.08;62223.69;4997464;28;20048;-85
2021/05/18 07:02:57;;;;;;;5.10;3.80;;;;;;;-150.07;49.63;63467.09;5025608;28;20411;-84
2021/05/18 07:08:22;;;;;;;13.25;5.10;;;;;;;-150.07;49.50;63383.34;5015269;28;20030;-85
2021/05/18 07:10:43;;;;;;;5.70;4.32;;;;;;;-150.07;48.82;63102.81;5016813;28;20034;-87
2021/05/18 07:13:11;;;;;;;9.30;4.97;;;;;;;-150.07;49.14;61991.38;5000142;28;20482;-88
2021/05/18 07:15:38;;;;;;;7.05;4.30;;;;;;;-150.07;48.96;62131.59;5007406;28;20133;-86
2021/05/18 07:18:07;;;;;;;10.25;3.95;;;;;;;-150.07;49.70;62127.41;5000741;28;20029;-87
2021/05/18 07:20:34;;;;;;;10.07;5.65;;;;;;;-150.07;49.89;62282.31;5009127;28;20073;-90
2021/05/18 07:23:24;;;;;;;9.45;7.43;;;;;;;-150.07;50.71;62181.84;5009550;28;20018;-89
2021/05/18 07:25:48;;;;;;;6.95;5.55;;;;;;;-150.07;50.46;61985.09;5016871;28;20052;-87
2021/05/18 07:28:16;;;;;;;9.65;6.13;;;;;;;-150.07;50.28;62081.38;5008832;28;20030;-88
2021/05/18 07:30:44;;;;;;;8.05;5.55;;;;;;;-150.07;49.14;62232.06;5025308;28;20022;-86
2021/05/18 07:33:10;;;;;;;5.93;5.00;;;;;;;-150.07;47.59;62424.63;5016512;28;20033;-87
2021/05/18 07:35:37;;;;;;;9.13;5.55;;;;;;;-150.07;49.03;62366.03;5015827;28;20104;-87
2021/05/18 07:38:06;;;;;;;10.20;5.57;;;;;;;-150.07;48.78;62263.47;5021357;28;20033;-89
2021/05/18 07:40:33;;;;;;;9.88;4.53;;;;;;;-150.07;48.13;61947.44;5011262;28;20034;-91
2021/05/18 07:43:01;;;;;;;8.45;5.07;;;;;;;-150.07;47.84;62405.78;4998903;28;20475;-90
2021/05/18 07:45:30;;;;;;;17.55;5.43;;;;;;;-150.07;49.29;61964.19;5028671;28;20034;-86
2021/05/18 07:48:17;;;;;;;7.38;5.13;;;;;;;-150.07;49.50;62142.06;4997152;28;20033;-89
2021/05/18 08:06:53;;;;;;;13.75;8.98;;;;;;;-150.07;48.21;62131.59;5013134;28;20088;-87
2021/05/18 08:09:22;;;;;;;4.90;3.95;;;;;;;-150.07;47.62;62236.25;5001609;28;20087;-86
2021/05/18 08:11:49;;;;;;;7.33;4.33;;;;;;;-150.07;48.06;62294.84;5009107;28;20082;-83
2021/05/18 08:14:20;;;;;;;6.65;3.53;;;;;;;-150.07;47.57;61631.44;5001504;28;20050;-93
2021/05/18 08:55:51;;;;;;;4.53;3.33;;;;;;;-150.07;44.29;62215.31;5011614;28;20510;-92
2021/05/18 10:34:33;;;;;;;7.13;6.13;;;;;;;-150.07;53.92;61995.56;5017375;28;20160;-90
2021/05/18 10:37:42;;;;;;;10.20;5.68;;;;;;;-150.07;52.83;61993.47;5017037;28;20038;-90
2021/05/18 10:40:24;;;;;;;8.55;6.47;;;;;;;-150.07;53.88;61926.50;5002072;28;20033;-94
2021/05/18 10:43:29;;;;;;;10.00;7.68;;;;;;;-150.07;53.23;62910.25;5020960;28;20056;-95
2021/05/18 10:46:03;;;;;;;12.32;6.65;;;;;;;-150.07;52.45;61955.81;4962159;29;20447;-92
2021/05/18 10:48:34;;;;;;;9.32;5.55;;;;;;;-150.07;53.06;61926.50;4999741;28;20049;-94
2021/05/18 10:51:43;;;;;;;8.45;5.25;;;;;;;-150.07;53.92;61478.69;4993257;28;20551;-94
2021/05/18 10:54:23;;;;;;;17.55;7.07;;;;;;;-150.07;53.69;61886.75;5020693;28;20123;-95
2021/05/18 10:56:59;;;;;;;8.77;5.75;;;;;;;-150.07;54.19;61855.34;5006750;28;20037;-94
2021/05/18 10:59:41;;;;;;;8.13;6.63;;;;;;;-150.07;54.28;61482.88;5010596;28;20030;-95
2021/05/18 11:02:22;;;;;;;9.55;6.32;;;;;;;-150.07;54.67;61821.88;5016207;28;20034;-94
2021/05/18 11:04:52;;;;;;;8.60;5.95;;;;;;;-150.07;55.00;61819.78;4974288;28;20110;-94
2021/05/18 11:07:21;;;;;;;;;;;;;;;-150.07;54.86;61851.16;4980214;28;20007;-94
2021/05/18 11:09:48;;;;;;;9.57;5.53;;;;;;;-150.07;54.43;61501.69;4995303;28;19924;-92
2021/05/18 11:12:21;;;;;;;8.55;6.20;;;;;;;-150.07;54.19;61252.69;5003327;28;20030;-91
2021/05/18 11:15:07;;;;;;;10.20;7.00;;;;;;;-150.07;53.88;61805.13;5005101;28;20030;-91
2021/05/18 11:17:42;;;;;;;7.93;6.10;;;;;;;-150.07;53.26;61679.56;4986182;28;20031;-92
2021/05/18 11:23:23;;;;;;;8.25;5.60;;;;;;;-150.07;53.80;61767.47;4990106;28;20031;-94
2021/05/18 11:25:59;;;;;;;8.18;6.38;;;;;;;-150.07;54.32;61574.94;5000787;28;20066;-92
2021/05/18 11:28:27;;;;;;;8.88;6.88;;;;;;;-150.07;54.49;61807.22;4985604;28;20180;-91
2021/05/18 11:30:57;;;;;;;8.93;5.72;;;;;;;-150.07;54.85;61441.03;4986934;28;20026;-91
2021/05/18 11:33:35;;;;;;;6.75;6.10;;;;;;;-150.07;55.25;61330.13;4972778;28;20046;-93
2021/05/18 11:36:12;;;;;;;12.57;7.25;;;;;;;-150.07;55.83;61407.53;4995856;28;20034;-92
2021/05/18 11:39:11;;;;;;;10.77;8.50;;;;;;;-150.07;56.51;62738.59;5000315;28;20043;-91
2021/05/18 11:41:41;;;;;;;10.07;8.10;;;;;;;-150.07;56.87;61679.56;5012797;28;20054;-93
2021/05/18 11:44:10;;;;;;;10.52;7.32;;;;;;;-150.07;57.09;61834.44;4998092;28;20399;-91
2021/05/18 11:46:46;;;;;;;10.85;8.98;;;;;;;-150.07;57.60;61298.72;4987072;28;20894;-88
2021/05/18 11:49:15;;;;;;;9.98;7.60;;;;;;;-150.07;57.83;61780.03;4992034;28;20042;-89
2021/05/18 11:51:53;;;;;;;11.63;8.20;;;;;;;-150.07;58.12;61564.47;4976069;28;20022;-89
2021/05/18 11:54:23;;;;;;;10.30;8.00;;;;;;;-150.07;57.64;61612.59;5002873;28;20130;-89
2021/05/18 11:56:52;;;;;;;11.02;8.10;;;;;;;-150.07;57.91;61763.28;4976335;28;20081;-88
2021/05/18 11:59:21;;;;;;;10.80;8.85;;;;;;;-150.07;57.53;61790.47;4995487;28;20029;-88
2021/05/18 12:01:58;;;;;;;11.43;8.90;;;;;;;-150.07;57.39;61365.69;4987135;28;20038;-89
2021/05/18 12:04:26;;;;;;;8.82;7.93;;;;;;;-150.07;57.11;61786.31;5032956;28;20316;-89
2021/05/18 12:07:00;;;;;;;10.68;8.00;;;;;;;-150.07;56.48;61587.50;5017921;28;20025;-87
2021/05/18 12:09:29;;;;;;;12.98;8.13;;;;;;;-150.07;56.66;61472.41;5020928;28;20038;-89
2021/05/18 12:12:02;;;;;;;12.35;7.53;;;;;;;-150.07;56.43;62700.91;5002789;28;20126;-89
2021/05/18 12:14:30;;;;;;;11.88;7.60;;;;;;;-150.07;56.75;61767.47;5001645;28;20026;-88
2021/05/18 12:16:57;;;;;;;10.65;7.53;;;;;;;-150.07;56.12;61828.16;5016781;28;20021;-89
2021/05/18 12:19:25;;;;;;;15.25;8.57;;;;;;;-150.07;55.86;61863.72;5004786;28;20026;-87
2021/05/18 12:21:55;;;;;;;14.32;8.57;;;;;;;-150.07;55.71;61300.81;5001429;28;20034;-89
2021/05/18 12:24:25;;;;;;;15.52;8.23;;;;;;;-150.07;56.29;62458.13;5016500;28;20042;-88
2021/05/18 12:27:04;;;;;;;12.57;9.13;;;;;;;-150.07;55.89;61614.69;5025162;28;20029;-89
2021/05/18 12:29:36;;;;;;;11.95;7.60;;;;;;;-150.07;55.46;60867.72;5016623;28;20038;-87
2021/05/18 12:32:27;;;;;;;11.90;8.02;;;;;;;-150.07;55.65;61796.75;5013953;28;20031;-89
2021/05/18 12:35:15;;;;;;;11.07;8.40;;;;;;;-150.07;55.10;61399.16;5010289;28;20037;-88
2021/05/18 12:37:44;;;;;;;11.35;7.47;;;;;;;-150.07;54.96;61227.59;5009064;28;20033;-89
2021/05/18 12:40:17;;;;;;;15.25;8.20;;;;;;;-150.07;55.04;61334.31;5024907;28;20018;-89
2021/05/18 12:42:48;;;;;;;11.25;7.28;;;;;;;-150.07;55.11;61832.34;5010894;28;20038;-89
2021/05/18 12:45:20;;;;;;;12.13;8.02;;;;;;;-150.07;55.05;61807.22;5020790;28;20060;-87
2021/05/18 12:47:56;;;;;;;12.88;8.52;;;;;;;-150.07;55.30;61685.84;5012984;28;20060;-88
2021/05/18 12:50:33;;;;;;;8.02;6.93;;;;;;;-150.07;55.06;61813.50;5014527;28;20040;-90
2021/05/18 12:53:03;;;;;;;8.00;6.47;;;;;;;-150.07;55.23;61849.06;4994171;28;20050;-88
2021/05/18 12:55:32;;;;;;;13.57;6.72;;;;;;;-150.07;54.85;61562.38;5017985;28;20014;-89
2021/05/18 12:58:00;;;;;;;12.27;8.05;;;;;;;-150.07;55.52;61664.94;5010739;28;20133;-90
2021/05/18 13:00:42;;;;;;;10.85;6.82;;;;;;;-150.07;55.15;62914.41;5003182;28;20033;-89
2021/05/18 13:03:29;;;;;;;14.02;7.97;;;;;;;-150.07;54.98;61870.00;5019267;28;20080;-89
2021/05/18 13:05:56;;;;;;;10.90;6.97;;;;;;;-150.07;54.85;61832.34;5001888;28;20395;-89
2021/05/18 13:08:29;;;;;;;9.02;8.07;;;;;;;-150.07;54.71;61051.81;5002327;28;20084;-89
2021/05/18 13:13:53;;;;;;;13.50;8.80;;;;;;;-150.07;54.51;61893.03;5019603;28;20045;-89
2021/05/18 13:16:25;;;;;;;14.80;8.57;;;;;;;-150.07;54.85;62983.50;5003229;28;20017;-89
2021/05/18 13:19:00;;;;;;;11.35;9.60;;;;;;;-150.07;55.04;61867.91;5002381;28;20041;-88
2021/05/18 13:21:45;;;;;;;10.38;7.72;;;;;;;-150.07;54.77;61507.97;5000551;28;20452;-87
2021/05/18 13:26:49;;;;;;;13.57;8.63;;;;;;;-150.07;54.25;61733.97;5022723;28;20432;-88
2021/05/18 13:29:19;;;;;;;14.40;8.40;;;;;;;-150.07;54.23;61886.75;5040084;28;20026;-87
2021/05/18 13:31:48;;;;;;;13.27;9.30;;;;;;;-150.07;53.79;61700.50;5003738;28;20029;-86
2021/05/18 13:34:15;;;;;;;14.55;9.20;;;;;;;-150.07;53.59;62767.91;5000730;28;20130;-89
2021/05/18 13:36:47;;;;;;;17.05;9.95;;;;;;;-150.07;53.24;62633.94;5012717;28;20026;-87
2021/05/18 13:39:26;;;;;;;19.98;11.88;;;;;;;-150.07;54.04;62977.22;5000822;28;20119;-88
2021/05/18 13:41:53;;;;;;;13.40;9.93;;;;;;;-150.07;54.29;62717.66;4990231;28;20391;-89
2021/05/18 13:44:20;;;;;;;15.10;9.98;;;;;;;-150.07;54.67;61551.91;5008307;28;20029;-88
2021/05/18 13:46:48;;;;;;;16.65;10.10;;;;;;;-150.07;54.74;61558.19;5006662;28;20121;-90
2021/05/18 13:49:15;;;;;;;20.27;11.93;;;;;;;-150.07;54.74;61574.94;5015384;28;20495;-87
2021/05/18 13:51:43;;;;;;;15.15;11.20;;;;;;;-150.07;54.18;62738.59;5000754;28;20038;-88
2021/05/18 13:54:10;;;;;;;19.83;12.02;;;;;;;-150.07;54.57;61851.16;4999742;28;20041;-88
2021/05/18 13:56:37;;;;;;;18.73;13.13;;;;;;;-150.07;54.41;61687.94;5017016;28;20034;-89
2021/05/18 13:59:04;;;;;;;14.93;11.82;;;;;;;-150.07;54.55;61386.63;4999676;28;20026;-89
2021/05/18 14:01:31;;;;;;;18.15;11.68;;;;;;;-150.07;54.75;61629.34;4999405;28;20029;-90
2021/05/18 14:03:58;;;;;;;19.52;11.88;;;;;;;-150.07;54.45;61616.78;5003221;28;20041;-89
2021/05/18 14:06:25;;;;;;;20.08;11.93;;;;;;;-150.07;54.50;61332.22;4999774;28;21470;-89
2021/05/18 14:08:52;;;;;;;21.08;12.98;;;;;;;-150.07;54.57;61524.72;5000583;28;20032;-89
2021/05/18 14:11:20;;;;;;;17.27;13.13;;;;;;;-150.07;54.80;62600.44;5006855;28;20030;-88
2021/05/18 14:13:52;;;;;;;21.67;13.25;;;;;;;-150.07;54.71;61740.25;5016826;28;20114;-88
2021/05/18 14:16:23;;;;;;;15.95;12.48;;;;;;;-150.07;55.08;61602.16;4998434;28;20045;-88
2021/05/18 14:18:52;;;;;;;23.00;12.93;;;;;;;-150.07;55.06;62742.78;4999807;28;20042;-88
2021/05/18 14:21:21;;;;;;;21.90;12.45;;;;;;;-150.07;55.22;62822.31;5004302;28;20038;-88
2021/05/18 14:26:32;;;;;;;19.55;12.25;;;;;;;-150.07;55.57;63069.31;5016575;28;20061;-88
2021/05/18 14:28:59;;;;;;;19.67;12.23;;;;;;;-150.07;54.77;61876.28;5000247;28;20038;-89
2021/05/18 14:31:26;;;;;;;18.42;13.70;;;;;;;-150.07;54.74;61738.16;4999832;28;20112;-89
2021/05/18 14:33:53;;;;;;;21.33;13.95;;;;;;;-150.07;55.39;61641.91;5016030;28;20028;-89
2021/05/18 14:36:21;;;;;;;16.35;12.63;;;;;;;-150.07;55.47;61367.78;5007847;28;20034;-88
2021/05/18 14:38:48;;;;;;;17.48;12.50;;;;;;;-150.07;56.05;61646.09;5000367;28;20033;-88
2021/05/18 14:44:06;;;;;;;17.20;12.27;;;;;;;-150.07;55.02;62705.09;5016534;28;20026;-89
2021/05/18 14:54:49;;;;;;;14.95;10.48;;;;;;;-150.07;54.53;62068.81;5016170;28;20048;-88
2021/05/18 14:57:17;;;;;;;12.20;10.30;;;;;;;-150.07;54.09;62636.03;5002362;28;20048;-89
2021/05/18 14:59:44;;;;;;;14.52;10.55;;;;;;;-150.07;53.91;61277.81;5012291;28;20097;-89
2021/05/18 15:02:11;;;;;;;12.93;9.50;;;;;;;-150.07;53.56;61675.38;5011460;28;20094;-90
2021/05/18 15:04:38;;;;;;;13.80;9.02;;;;;;;-150.07;53.77;62617.19;4997671;28;20686;-89
2021/05/18 15:07:08;;;;;;;12.00;9.32;;;;;;;-150.07;53.82;61775.84;4999080;28;20097;-90
2021/05/18 15:09:41;;;;;;;14.40;8.80;;;;;;;-150.07;54.34;62395.31;4998372;28;20041;-89
2021/05/18 15:12:09;;;;;;;12.98;9.02;;;;;;;-150.07;54.22;61662.84;5001121;28;20030;-89
2021/05/18 15:14:37;;;;;;;15.40;9.23;;;;;;;-150.07;53.71;61761.19;4999642;28;20021;-87
2021/05/18 15:17:04;;;;;;;10.77;8.38;;;;;;;-150.07;53.76;61830.25;5016324;28;20504;-88
2021/05/18 15:19:31;;;;;;;11.75;8.18;;;;;;;-150.07;53.14;61667.00;5003596;28;20034;-88
2021/05/18 15:21:59;;;;;;;9.73;8.35;;;;;;;-150.07;53.44;61811.41;4996106;28;20040;-88
2021/05/18 15:24:27;;;;;;;11.30;7.78;;;;;;;-150.07;53.95;61328.03;5000253;28;20025;-88
2021/05/18 15:26:54;;;;;;;14.05;9.02;;;;;;;-150.07;53.91;61332.22;5000135;28;20026;-88
2021/05/18 15:29:22;;;;;;;13.38;7.72;;;;;;;-150.07;53.62;62692.53;4991531;28;20488;-89
2021/05/18 15:31:49;;;;;;;11.10;7.82;;;;;;;-150.07;53.90;61585.41;5006597;28;20033;-90
2021/05/18 15:34:16;;;;;;;11.50;8.50;;;;;;;-150.07;53.89;61478.69;4998981;28;20450;-89
2021/05/18 15:36:44;;;;;;;11.68;8.18;;;;;;;-150.07;53.68;61608.41;4999118;28;20018;-88
2021/05/18 15:39:11;;;;;;;16.02;9.07;;;;;;;-150.07;53.42;61618.88;4997767;28;20545;-89
2021/05/18 15:41:38;;;;;;;13.07;8.73;;;;;;;-150.07;53.41;61524.72;5005691;28;20056;-88
2021/05/18 15:44:05;;;;;;;12.30;7.95;;;;;;;-150.07;53.18;62874.66;5003864;28;20034;-88
2021/05/18 15:46:32;;;;;;;12.38;8.15;;;;;;;-150.07;53.23;61807.22;4996809;28;20041;-88
2021/05/18 15:48:59;;;;;;;13.50;8.07;;;;;;;-150.07;52.87;61495.41;5020528;28;20038;-87
2021/05/18 15:51:26;;;;;;;11.98;8.65;;;;;;;-150.07;52.97;61807.22;5004300;28;20053;-88
2021/05/18 15:53:53;;;;;;;15.13;9.10;;;;;;;-150.07;53.34;61545.66;5004220;28;20100;-89
2021/05/18 15:56:20;;;;;;;14.50;9.40;;;;;;;-150.07;53.54;61411.72;5021563;28;20044;-87
2021/05/18 15:58:47;;;;;;;15.35;9.10;;;;;;;-150.07;54.45;61612.59;5021141;28;20096;-89
2021/05/18 16:01:14;;;;;;;15.02;8.90;;;;;;;-150.07;54.60;61637.72;5010712;28;20022;-88
2021/05/18 16:03:42;;;;;;;13.32;9.95;;;;;;;-150.07;55.58;62713.47;5016907;28;20499;-88
2021/05/18 16:06:09;;;;;;;15.35;10.85;;;;;;;-150.07;55.61;62566.94;5000521;28;20128;-89
2021/05/18 16:11:09;;;;;;;18.17;12.65;;;;;;;-150.07;57.53;61750.72;5018950;28;20033;-88
2021/05/18 16:13:39;;;;;;;23.98;16.23;;;;;;;-150.07;58.97;61407.53;5016967;28;20034;-87
2021/05/18 16:16:16;;;;;;;17.60;15.80;;;;;;;-150.07;59.44;61667.00;5023904;28;20033;-88
2021/05/18 16:18:43;;;;;;;20.77;16.17;;;;;;;-150.07;59.63;62441.38;5002614;28;20372;-88
2021/05/18 16:21:13;;;;;;;25.38;16.95;;;;;;;-150.07;59.81;61685.84;5003349;28;20387;-88
2021/05/18 16:23:40;;;;;;;19.75;17.48;;;;;;;-150.07;59.93;62744.88;5001802;28;20495;-89
2021/05/18 16:26:10;;;;;;;24.10;17.60;;;;;;;-150.07;60.07;62954.19;5016751;28;20026;-88
2021/05/18 16:28:37;;;;;;;22.08;17.40;;;;;;;-150.07;60.02;61616.78;4999354;28;20106;-89